Ybor City, Florida
Current Conditions -  °F | °C
As of 4:53 AM on Sunday 26 Oct 2014 (Local Time) from KTPA Reporting Station
Clear Clear  
Wind Chill: 59°   Ceiling: Unl
Heat Index: 59°   Visibility: 9mi
Dew Point: 55°   Wind: 0mph
Humidity: 87%   Direction: NA
Pressure: 29.98"   Gusts: NA
Location:  28.1184°N, 82.4713°W
Report Text: KTPA 260853Z 00000KT 9SM CLR 15/13 A2998 RMK AO2 SLP151 T01500128 55009
Loading
Personal Weather Stations






























Interactive Weather Map
Tropical Storm Tracking
New forecast layout! Learn more

10-Day Weather Forecast

Advertisements
Track Severe Weather on mobile